Time;durP1;ratioP1;P1;durP2;ratioP2;P2;SDS_P1;SDS_P2;PMS_P1;PMS_P2;Temp;Humidity;BMP_temperature;BMP_pressure;BME280_temperature;BME280_humidity;BME280_pressure;Samples;Min_cycle;Max_cycle;Signal;HPM_P1;HPM_P2
2023/12/02 00:01:26;;;;;;;37.93;18.80;;;;;;;5.08;91.47;99328.11;124487;1102;101811;-77
2023/12/02 00:03:58;;;;;;;35.87;19.30;;;;;;;5.09;91.21;99348.10;124501;1102;101953;-77
2023/12/02 00:06:29;;;;;;;35.27;18.50;;;;;;;5.10;91.71;99352.48;124466;1102;104060;-77
2023/12/02 00:09:00;;;;;;;35.20;19.00;;;;;;;5.10;90.97;99360.29;124426;1102;104176;-77
2023/12/02 00:11:32;;;;;;;36.50;19.90;;;;;;;5.10;91.80;99357.69;124431;1102;101930;-77
2023/12/02 00:14:03;;;;;;;38.63;20.80;;;;;;;5.12;91.63;99366.42;124457;1102;104212;-78
2023/12/02 00:16:35;;;;;;;38.40;21.00;;;;;;;5.10;91.56;99362.89;124456;1102;104175;-78
2023/12/02 00:19:06;;;;;;;37.77;21.33;;;;;;;5.06;91.43;99359.26;124496;1102;102319;-77
2023/12/02 00:21:38;;;;;;;36.40;19.73;;;;;;;5.04;91.13;99346.20;124552;1102;104199;-77
2023/12/02 00:24:09;;;;;;;38.23;20.77;;;;;;;5.00;91.35;99372.92;124505;1102;104247;-77
2023/12/02 00:26:41;;;;;;;35.43;18.17;;;;;;;4.96;91.36;99388.34;124463;1102;102300;-77
2023/12/02 00:29:12;;;;;;;36.47;18.47;;;;;;;4.88;91.52;99393.23;124773;1099;105489;-77
2023/12/02 00:31:44;;;;;;;35.20;17.57;;;;;;;4.81;91.01;99385.99;125008;1099;104205;-77
2023/12/02 00:34:15;;;;;;;32.83;18.20;;;;;;;4.74;91.22;99394.38;124551;1099;104172;-77
2023/12/02 00:36:48;;;;;;;36.63;18.47;;;;;;;4.70;91.29;99371.68;125036;1098;101852;-77
2023/12/02 00:39:19;;;;;;;35.33;17.87;;;;;;;4.71;91.88;99363.08;125084;1099;101842;-77
2023/12/02 00:41:51;;;;;;;32.53;16.93;;;;;;;4.72;91.54;99376.13;125005;1099;104274;-77
2023/12/02 00:44:22;;;;;;;35.70;18.50;;;;;;;4.74;91.92;99383.98;124578;1099;101932;-77
2023/12/02 00:46:54;;;;;;;32.37;17.10;;;;;;;4.74;91.98;99405.66;124981;1099;102531;-77
2023/12/02 00:49:25;;;;;;;32.97;17.27;;;;;;;4.72;91.46;99407.31;124930;1098;104376;-77
2023/12/02 00:51:57;;;;;;;35.17;16.30;;;;;;;4.72;92.16;99406.41;125053;1099;102211;-77
2023/12/02 00:54:28;;;;;;;31.90;16.33;;;;;;;4.71;91.92;99407.25;124944;1099;101935;-77
2023/12/02 00:56:59;;;;;;;30.97;16.07;;;;;;;4.70;91.60;99403.74;124470;1099;102124;-77
2023/12/02 00:59:31;;;;;;;32.97;17.37;;;;;;;4.70;92.16;99403.74;124953;1098;104267;-77
2023/12/02 01:02:02;;;;;;;31.67;16.07;;;;;;;4.72;92.45;99409.00;125022;1099;104163;-78
2023/12/02 01:04:34;;;;;;;32.67;16.77;;;;;;;4.71;92.24;99413.33;125063;1099;102160;-77
2023/12/02 01:07:06;;;;;;;30.73;16.53;;;;;;;4.70;92.14;99413.27;125014;1099;102103;-77
2023/12/02 01:09:37;;;;;;;33.73;16.23;;;;;;;4.71;92.06;99405.53;124988;1099;102312;-77
2023/12/02 01:12:09;;;;;;;31.15;15.75;;;;;;;4.70;92.29;99393.34;124995;1099;104193;-77
2023/12/02 01:14:41;;;;;;;29.70;15.77;;;;;;;4.70;91.93;99392.47;124969;1099;104173;-77
2023/12/02 01:17:12;;;;;;;32.17;16.03;;;;;;;4.69;91.75;99391.59;124986;1099;104256;-76
2023/12/02 01:19:44;;;;;;;33.40;17.23;;;;;;;4.66;92.27;99407.94;124939;1099;104317;-77
2023/12/02 01:22:15;;;;;;;32.63;16.73;;;;;;;4.62;91.99;99394.75;124947;1098;104380;-77
2023/12/02 01:24:47;;;;;;;32.40;16.60;;;;;;;4.59;91.93;99399.81;124986;1099;104313;-77
2023/12/02 01:27:18;;;;;;;29.97;15.80;;;;;;;4.55;92.20;99403.09;124498;1099;104242;-77
2023/12/02 01:29:50;;;;;;;30.97;16.53;;;;;;;4.52;92.43;99398.69;124995;1099;102566;-77
2023/12/02 01:32:21;;;;;;;32.90;16.67;;;;;;;4.48;91.79;99391.57;124916;1099;101980;-77
2023/12/02 01:34:53;;;;;;;32.90;16.40;;;;;;;4.48;92.14;99387.25;124916;1099;104227;-77
2023/12/02 01:37:24;;;;;;;32.50;17.90;;;;;;;4.47;92.57;99390.69;124991;1099;101804;-77
2023/12/02 01:39:55;;;;;;;32.97;17.40;;;;;;;4.46;92.42;99382.84;124951;1099;101910;-77
2023/12/02 01:42:27;;;;;;;32.80;16.67;;;;;;;4.46;92.00;99375.92;125067;1099;101970;-77
2023/12/02 01:44:58;;;;;;;31.20;16.63;;;;;;;4.44;91.98;99376.67;124918;1099;104182;-76
2023/12/02 01:47:30;;;;;;;34.07;17.23;;;;;;;4.44;92.70;99379.27;124932;1099;104192;-76
2023/12/02 01:50:03;;;;;;;31.80;17.27;;;;;;;4.42;92.41;99386.99;124891;1099;104169;-77
2023/12/02 01:52:35;;;;;;;36.53;18.27;;;;;;;4.44;92.41;99374.98;125035;1099;104590;-77
2023/12/02 01:55:07;;;;;;;37.43;18.27;;;;;;;4.46;92.41;99367.25;125017;1099;101800;-77
2023/12/02 01:57:39;;;;;;;32.90;17.27;;;;;;;4.47;92.55;99369.91;125033;1099;104169;-77
2023/12/02 02:00:13;;;;;;;34.17;17.43;;;;;;;4.48;92.11;99366.47;125021;1099;104374;-77
2023/12/02 02:02:44;;;;;;;33.67;17.42;;;;;;;4.50;92.54;99369.13;125045;1099;101967;-77
2023/12/02 02:05:16;;;;;;;33.13;16.53;;;;;;;4.48;92.67;99370.79;124986;1099;102166;-77
2023/12/02 02:07:47;;;;;;;37.50;18.33;;;;;;;4.46;92.64;99372.45;124972;1099;104246;-77
2023/12/02 02:10:20;;;;;;;34.40;18.60;;;;;;;4.47;93.11;99362.13;124570;1099;101974;-77
2023/12/02 02:12:52;;;;;;;34.97;17.50;;;;;;;4.50;92.98;99359.65;125134;1098;102434;-77
2023/12/02 02:15:23;;;;;;;36.03;18.97;;;;;;;4.52;92.56;99335.42;125060;1099;104191;-76
2023/12/02 02:17:55;;;;;;;32.73;16.57;;;;;;;4.55;93.05;99339.05;124938;1099;104214;-77
2023/12/02 02:20:27;;;;;;;32.97;17.10;;;;;;;4.56;93.07;99348.60;125011;1099;104201;-76
2023/12/02 02:22:58;;;;;;;32.73;17.47;;;;;;;4.55;93.04;99361.53;124542;1099;104395;-77
2023/12/02 02:25:30;;;;;;;32.37;17.30;;;;;;;4.57;93.13;99389.36;124899;1099;104428;-77
2023/12/02 02:28:01;;;;;;;33.70;16.57;;;;;;;4.58;93.17;99385.04;125064;1099;104178;-77
2023/12/02 02:30:33;;;;;;;35.07;17.93;;;;;;;4.58;93.04;99379.84;124953;1099;104201;-77
2023/12/02 02:33:04;;;;;;;32.37;17.53;;;;;;;4.59;93.12;99373.84;125076;1099;102226;-77
2023/12/02 02:35:37;;;;;;;35.87;17.80;;;;;;;4.56;93.02;99371.98;125020;1098;102016;-77
2023/12/02 02:38:08;;;;;;;36.80;18.80;;;;;;;4.56;92.75;99381.50;125013;1098;104409;-76
2023/12/02 02:40:40;;;;;;;38.67;18.83;;;;;;;4.56;92.81;99379.78;124570;1099;104156;-77
2023/12/02 02:43:12;;;;;;;32.17;17.30;;;;;;;4.55;93.25;99383.22;125029;1099;104280;-77
2023/12/02 02:45:44;;;;;;;32.20;17.60;;;;;;;4.56;93.46;99347.73;124996;1099;101865;-78
2023/12/02 02:48:15;;;;;;;35.07;17.13;;;;;;;4.57;93.44;99352.11;125013;1099;104198;-78
2023/12/02 02:50:47;;;;;;;33.60;17.23;;;;;;;4.55;93.77;99357.24;124535;1099;104386;-77
2023/12/02 02:53:18;;;;;;;35.30;18.30;;;;;;;4.55;93.80;99366.73;124928;1099;104204;-77
2023/12/02 02:55:50;;;;;;;34.97;17.83;;;;;;;4.55;93.64;99380.62;124967;1099;104230;-77
2023/12/02 02:58:21;;;;;;;35.97;18.50;;;;;;;4.51;93.51;99383.91;124979;1099;104104;-77
2023/12/02 03:00:52;;;;;;;38.03;19.63;;;;;;;4.51;93.19;99376.11;124960;1099;104253;-77
2023/12/02 03:03:24;;;;;;;34.37;18.23;;;;;;;4.53;93.84;99383.97;124952;1099;102067;-77
2023/12/02 03:05:55;;;;;;;36.80;19.23;;;;;;;4.52;93.61;99379.59;124974;1098;104220;-76
2023/12/02 03:08:27;;;;;;;36.23;19.27;;;;;;;4.53;93.71;99389.17;124965;1099;104271;-77
2023/12/02 03:10:58;;;;;;;36.00;18.67;;;;;;;4.52;93.12;99401.28;124943;1099;102082;-77
2023/12/02 03:13:30;;;;;;;35.43;18.90;;;;;;;4.53;93.64;99392.64;125040;1099;102088;-77
2023/12/02 03:16:01;;;;;;;35.30;18.93;;;;;;;4.54;93.85;99391.83;124981;1099;101807;-77
2023/12/02 03:18:33;;;;;;;35.60;18.47;;;;;;;4.57;93.44;99388.48;125038;1099;104264;-77
2023/12/02 03:21:04;;;;;;;35.90;18.30;;;;;;;4.57;93.94;99378.97;125029;1099;104265;-77
2023/12/02 03:23:36;;;;;;;36.30;19.37;;;;;;;4.57;93.92;99380.69;124510;1099;104235;-77
2023/12/02 03:26:08;;;;;;;34.97;18.27;;;;;;;4.58;93.74;99387.64;124458;1099;102023;-77
2023/12/02 03:28:40;;;;;;;37.33;19.40;;;;;;;4.57;92.78;99386.77;124996;1099;104269;-77
2023/12/02 03:31:11;;;;;;;36.37;18.90;;;;;;;4.58;93.74;99385.04;125003;1099;104221;-76
2023/12/02 03:33:43;;;;;;;36.80;19.33;;;;;;;4.56;93.39;99384.10;124536;1099;104188;-77
2023/12/02 03:36:15;;;;;;;36.00;18.80;;;;;;;4.54;93.74;99373.64;125135;1099;104338;-77
2023/12/02 03:38:46;;;;;;;35.43;18.87;;;;;;;4.56;93.68;99382.38;124507;1099;104326;-77
2023/12/02 03:41:18;;;;;;;36.80;18.80;;;;;;;4.53;93.26;99379.66;124999;1099;101868;-77
2023/12/02 03:43:50;;;;;;;38.00;19.70;;;;;;;4.50;93.74;99376.92;125093;1099;104172;-77
2023/12/02 03:46:21;;;;;;;37.53;19.40;;;;;;;4.49;93.77;99382.97;124901;1099;104201;-77
2023/12/02 03:48:53;;;;;;;40.07;19.73;;;;;;;4.49;94.09;99394.23;124934;1099;102040;-76
2023/12/02 03:51:24;;;;;;;36.17;19.80;;;;;;;4.52;94.14;99400.38;124963;1099;104245;-76
2023/12/02 03:53:56;;;;;;;36.73;19.63;;;;;;;4.54;94.10;99407.42;124976;1099;104357;-77
2023/12/02 03:56:28;;;;;;;39.57;19.90;;;;;;;4.58;93.92;99396.34;124983;1099;102959;-77
2023/12/02 03:58:59;;;;;;;36.17;19.53;;;;;;;4.59;94.45;99392.90;124570;1099;101997;-77
2023/12/02 04:01:31;;;;;;;37.20;20.57;;;;;;;4.59;94.12;99392.90;125017;1099;101839;-77
2023/12/02 04:04:05;;;;;;;37.55;19.25;;;;;;;4.60;93.85;99399.88;124561;1099;104242;-78
2023/12/02 04:06:36;;;;;;;38.47;20.03;;;;;;;4.62;94.08;99399.95;124433;1099;101992;-76
2023/12/02 04:09:09;;;;;;;35.80;20.20;;;;;;;4.65;94.22;99394.88;124974;1099;104197;-77
2023/12/02 04:11:41;;;;;;;38.30;20.33;;;;;;;4.65;94.15;99405.27;124968;1098;104267;-77
2023/12/02 04:14:12;;;;;;;37.97;19.50;;;;;;;4.60;94.04;99402.48;124996;1099;104180;-77
2023/12/02 04:16:44;;;;;;;38.77;20.47;;;;;;;4.59;93.45;99395.50;124980;1099;104227;-77
2023/12/02 04:19:15;;;;;;;37.40;19.70;;;;;;;4.59;93.91;99403.30;125056;1099;101896;-76
2023/12/02 04:21:47;;;;;;;38.37;20.63;;;;;;;4.57;93.77;99407.55;124952;1099;104258;-77
2023/12/02 04:24:19;;;;;;;41.07;19.53;;;;;;;4.55;94.24;99393.62;124983;1098;110175;-77
2023/12/02 04:26:51;;;;;;;38.57;19.97;;;;;;;4.54;93.97;99384.03;125044;1099;104198;-77
2023/12/02 04:29:23;;;;;;;37.23;20.17;;;;;;;4.56;93.96;99392.77;124912;1099;102306;-77
2023/12/02 04:31:54;;;;;;;39.13;20.63;;;;;;;4.56;94.07;99395.38;124986;1098;101864;-77
2023/12/02 04:34:26;;;;;;;37.97;20.37;;;;;;;4.56;93.71;99397.97;124992;1099;104217;-77
2023/12/02 04:36:57;;;;;;;38.60;20.17;;;;;;;4.56;94.46;99400.56;124895;1099;104276;-77
2023/12/02 04:39:28;;;;;;;40.20;20.07;;;;;;;4.54;94.55;99391.83;124919;1099;101874;-77
2023/12/02 04:42:00;;;;;;;37.27;20.30;;;;;;;4.54;94.13;99397.03;124916;1099;104230;-77
2023/12/02 04:44:31;;;;;;;43.37;21.00;;;;;;;4.55;94.89;99390.11;124886;1099;102210;-77
2023/12/02 04:47:03;;;;;;;38.70;19.87;;;;;;;4.55;93.96;99401.41;124871;1097;104264;-77
2023/12/02 04:49:34;;;;;;;39.20;21.23;;;;;;;4.56;94.38;99407.48;124863;1099;104277;-76
2023/12/02 04:52:06;;;;;;;39.90;20.83;;;;;;;4.56;94.29;99405.77;124414;1099;104395;-77
2023/12/02 04:54:38;;;;;;;43.23;20.87;;;;;;;4.56;94.68;99405.77;124910;1099;104169;-77
2023/12/02 04:57:09;;;;;;;42.43;21.10;;;;;;;4.58;94.66;99403.23;124837;1099;101804;-78
2023/12/02 04:59:41;;;;;;;39.17;20.40;;;;;;;4.58;94.21;99395.44;124377;1099;104633;-77
2023/12/02 05:02:12;;;;;;;43.23;22.17;;;;;;;4.57;94.63;99386.77;124438;1099;104165;-76
2023/12/02 05:04:44;;;;;;;40.43;20.83;;;;;;;4.54;94.36;99391.83;124867;1099;104313;-76
2023/12/02 05:07:16;;;;;;;44.70;22.17;;;;;;;4.53;94.63;99404.75;124915;1098;104369;-77
2023/12/02 05:09:48;;;;;;;43.80;22.80;;;;;;;4.53;94.66;99395.24;124855;1099;104205;-77
2023/12/02 05:12:19;;;;;;;41.13;22.63;;;;;;;4.53;94.51;99383.97;124924;1099;104203;-77
2023/12/02 05:14:51;;;;;;;44.50;23.53;;;;;;;4.52;94.47;99382.19;124904;1099;104137;-76
2023/12/02 05:17:22;;;;;;;46.53;23.93;;;;;;;4.50;94.18;99393.42;124948;1098;104211;-77
2023/12/02 05:19:54;;;;;;;47.80;24.20;;;;;;;4.47;94.90;99387.19;124952;1099;101976;-78
2023/12/02 05:22:25;;;;;;;45.27;23.07;;;;;;;4.46;94.64;99377.64;124865;1099;101951;-77
2023/12/02 05:24:57;;;;;;;46.83;24.40;;;;;;;4.45;94.87;99381.92;124743;1099;104238;-76
2023/12/02 05:27:29;;;;;;;43.87;23.77;;;;;;;4.44;94.52;99380.17;124851;1099;104248;-77
2023/12/02 05:30:01;;;;;;;47.40;25.03;;;;;;;4.44;94.61;99384.46;124890;1099;102225;-76
2023/12/02 05:32:32;;;;;;;46.13;23.70;;;;;;;4.44;94.96;99379.27;124918;1099;104182;-77
2023/12/02 05:35:04;;;;;;;50.67;23.83;;;;;;;4.42;94.72;99368.81;124839;1099;104034;-77
2023/12/02 05:37:36;;;;;;;50.47;25.07;;;;;;;4.39;95.23;99344.42;124431;1099;104265;-77
2023/12/02 05:40:10;;;;;;;51.57;25.83;;;;;;;4.38;94.81;99347.84;124863;1099;102869;-77
2023/12/02 05:42:40;;;;;;;;;;;;;;;4.37;95.15;99346.95;124870;1099;102038;-77
2023/12/02 05:45:12;;;;;;;49.93;24.73;;;;;;;4.34;95.24;99352.03;124922;1099;104172;-76
2023/12/02 05:47:44;;;;;;;54.93;26.43;;;;;;;4.33;94.91;99360.63;124830;1099;104201;-76
2023/12/02 05:50:17;;;;;;;52.87;24.90;;;;;;;4.34;95.25;99358.94;124847;1099;104181;-77
2023/12/02 05:53:05;;;;;;;51.37;25.43;;;;;;;4.36;95.60;99357.28;125104;1099;103349;-77
2023/12/02 05:55:36;;;;;;;58.47;26.40;;;;;;;4.37;95.86;99353.87;124920;1099;104188;-76
2023/12/02 05:58:08;;;;;;;53.83;26.30;;;;;;;4.38;95.68;99363.42;124915;1099;104173;-77
2023/12/02 06:00:39;;;;;;;54.97;25.00;;;;;;;4.38;94.89;99363.42;124929;1099;101881;-76
2023/12/02 06:03:11;;;;;;;57.07;27.10;;;;;;;4.35;95.67;99369.39;124808;1098;101846;-75
2023/12/02 06:05:42;;;;;;;58.40;26.93;;;;;;;4.33;95.34;99371.02;124705;1099;104202;-76
2023/12/02 06:08:14;;;;;;;56.90;27.13;;;;;;;4.35;95.89;99364.20;124941;1099;104730;-76
2023/12/02 06:10:46;;;;;;;57.27;26.70;;;;;;;4.37;95.94;99370.34;124895;1099;104190;-75
2023/12/02 06:13:17;;;;;;;57.50;25.67;;;;;;;4.39;95.30;99375.59;124850;1099;104294;-76
2023/12/02 06:15:48;;;;;;;54.97;25.67;;;;;;;4.37;95.58;99375.53;124868;1098;104173;-77
2023/12/02 06:18:20;;;;;;;56.17;26.77;;;;;;;4.39;96.10;99380.80;124423;1099;104296;-77
2023/12/02 06:20:51;;;;;;;58.30;26.13;;;;;;;4.41;95.77;99384.33;124408;1099;104297;-77
2023/12/02 06:23:23;;;;;;;63.43;28.73;;;;;;;4.45;96.10;99375.86;124384;1099;104211;-77
2023/12/02 06:25:54;;;;;;;60.90;27.93;;;;;;;4.48;95.67;99370.79;124336;1099;104175;-76
2023/12/02 06:28:26;;;;;;;58.30;26.70;;;;;;;4.50;95.80;99361.34;124486;1102;104259;-76
2023/12/02 06:30:58;;;;;;;62.50;28.97;;;;;;;4.51;95.84;99370.92;124778;1098;102018;-76
2023/12/02 06:33:29;;;;;;;60.87;29.10;;;;;;;4.51;96.12;99383.91;124706;1099;102354;-75
2023/12/02 06:36:01;;;;;;;60.40;28.10;;;;;;;4.53;95.60;99402.16;124870;1099;104478;-76
2023/12/02 06:38:33;;;;;;;59.83;27.77;;;;;;;4.52;96.37;99401.28;124914;1099;104060;-78
2023/12/02 06:41:04;;;;;;;57.60;28.30;;;;;;;4.53;96.45;99395.24;124912;1099;104316;-76
2023/12/02 06:43:36;;;;;;;55.17;26.30;;;;;;;4.54;96.21;99384.03;124402;1099;104169;-76
2023/12/02 06:46:09;;;;;;;58.90;28.27;;;;;;;4.55;96.08;99383.22;124546;1099;104293;-77
2023/12/02 06:48:40;;;;;;;60.27;28.27;;;;;;;4.59;96.31;99379.03;124924;1099;102149;-75
2023/12/02 06:51:12;;;;;;;56.20;26.80;;;;;;;4.60;96.28;99373.02;124956;1099;102067;-76
2023/12/02 06:53:43;;;;;;;54.53;25.47;;;;;;;4.60;96.84;99376.50;124942;1099;102660;-77
2023/12/02 06:56:22;;;;;;;58.30;27.77;;;;;;;4.59;96.46;99385.11;124813;1099;104189;-77
2023/12/02 06:58:54;;;;;;;59.73;27.27;;;;;;;4.58;96.37;99380.75;124453;1099;104230;-75
2023/12/02 07:01:27;;;;;;;59.80;27.63;;;;;;;4.59;96.30;99377.31;124883;1099;101986;-77
2023/12/02 07:04:00;;;;;;;56.73;27.77;;;;;;;4.63;96.69;99375.75;124857;1099;104300;-77
2023/12/02 07:06:32;;;;;;;54.03;26.10;;;;;;;4.65;96.11;99380.16;124922;1099;104307;-76
2023/12/02 07:09:04;;;;;;;57.07;24.13;;;;;;;4.64;97.26;99386.20;124901;1099;104271;-76
2023/12/02 07:11:36;;;;;;;59.17;26.50;;;;;;;4.61;97.04;99385.17;124919;1099;104255;-76
2023/12/02 07:14:08;;;;;;;58.73;27.37;;;;;;;4.59;96.69;99387.70;124914;1099;102794;-79
2023/12/02 07:16:39;;;;;;;58.80;24.83;;;;;;;4.61;96.71;99388.67;124879;1099;102016;-77
2023/12/02 07:19:10;;;;;;;59.17;27.13;;;;;;;4.58;97.48;99383.35;124964;1099;104130;-76
2023/12/02 07:21:42;;;;;;;63.83;28.20;;;;;;;4.59;96.93;99368.64;124874;1099;104300;-77
2023/12/02 07:24:14;;;;;;;61.83;27.20;;;;;;;4.61;96.95;99374.78;124963;1099;104201;-77
2023/12/02 07:26:45;;;;;;;59.50;27.20;;;;;;;4.62;97.30;99397.34;124498;1099;102604;-76
2023/12/02 07:29:17;;;;;;;61.83;27.17;;;;;;;4.65;97.02;99405.27;124807;1099;101883;-76
2023/12/02 07:31:48;;;;;;;60.30;28.13;;;;;;;4.67;97.46;99398.42;124944;1099;104242;-76
2023/12/02 07:34:19;;;;;;;59.53;25.63;;;;;;;4.71;96.99;99394.26;124463;1099;104335;-77
2023/12/02 07:36:51;;;;;;;54.77;24.97;;;;;;;4.71;97.25;99391.66;124849;1099;102395;-75
2023/12/02 07:39:22;;;;;;;56.13;25.03;;;;;;;4.68;98.23;99401.08;124943;1099;104223;-76
2023/12/02 07:41:54;;;;;;;55.40;24.20;;;;;;;4.68;97.84;99389.81;124898;1099;104223;-77
2023/12/02 07:44:26;;;;;;;56.07;25.37;;;;;;;4.69;97.81;99389.00;124909;1099;104073;-76
2023/12/02 07:46:57;;;;;;;58.33;24.57;;;;;;;4.70;97.44;99382.08;124827;1099;102345;-76
2023/12/02 07:49:29;;;;;;;58.17;26.80;;;;;;;4.75;97.45;99398.73;124477;1099;104272;-77
2023/12/02 07:52:00;;;;;;;59.27;25.97;;;;;;;4.79;97.74;99398.05;124895;1098;104300;-76
2023/12/02 07:54:32;;;;;;;58.73;25.93;;;;;;;4.84;97.87;99407.78;124817;1099;102348;-76
2023/12/02 07:57:03;;;;;;;53.40;23.73;;;;;;;4.89;97.95;99402.78;124880;1099;104200;-76
2023/12/02 07:59:35;;;;;;;53.83;23.93;;;;;;;4.94;98.38;99387.37;124986;1099;104277;-76
2023/12/02 08:02:06;;;;;;;54.70;22.97;;;;;;;4.95;98.69;99396.95;125034;1099;102418;-77
2023/12/02 08:04:38;;;;;;;53.17;23.77;;;;;;;4.93;97.68;99394.29;124965;1099;104165;-76
2023/12/02 08:07:09;;;;;;;53.00;24.07;;;;;;;4.95;98.14;99395.23;124888;1099;104251;-77
2023/12/02 08:09:41;;;;;;;50.30;23.00;;;;;;;4.97;98.08;99401.41;124920;1099;104165;-76
2023/12/02 08:12:13;;;;;;;47.67;21.40;;;;;;;5.03;98.23;99390.34;124478;1099;101937;-79
2023/12/02 08:14:44;;;;;;;48.33;22.60;;;;;;;5.04;98.66;99359.20;124922;1099;104197;-77
2023/12/02 08:17:15;;;;;;;50.43;21.30;;;;;;;5.06;98.01;99347.98;124936;1099;104351;-76
2023/12/02 08:19:47;;;;;;;52.83;22.57;;;;;;;5.06;97.98;99355.78;124989;1099;101842;-75
2023/12/02 08:22:24;;;;;;;48.33;21.37;;;;;;;5.05;98.31;99352.31;124485;1099;101926;-76
2023/12/02 08:24:56;;;;;;;44.97;21.40;;;;;;;5.06;98.21;99350.58;124443;1099;104221;-76
2023/12/02 08:27:27;;;;;;;44.67;20.40;;;;;;;5.10;98.21;99360.29;124951;1099;104185;-77
2023/12/02 08:29:58;;;;;;;46.57;22.37;;;;;;;5.13;98.13;99361.28;124401;1099;102112;-76
2023/12/02 08:32:30;;;;;;;43.30;20.03;;;;;;;5.14;98.25;99359.56;124373;1098;104345;-77
2023/12/02 08:35:01;;;;;;;44.60;20.50;;;;;;;5.13;98.46;99353.48;124885;1099;102420;-77
2023/12/02 08:37:33;;;;;;;49.40;20.97;;;;;;;5.15;98.35;99354.42;124815;1099;101894;-77
2023/12/02 08:40:05;;;;;;;46.90;21.97;;;;;;;5.20;98.62;99344.20;124911;1098;102243;-77
2023/12/02 08:42:36;;;;;;;48.43;20.50;;;;;;;5.22;98.49;99342.56;124980;1099;102605;-76
2023/12/02 08:45:10;;;;;;;46.50;22.20;;;;;;;5.24;98.08;99330.49;124885;1099;102242;-76
2023/12/02 08:47:41;;;;;;;49.43;21.43;;;;;;;5.30;98.46;99333.33;124862;1099;104159;-76
2023/12/02 08:50:13;;;;;;;47.07;22.30;;;;;;;5.38;98.56;99334.50;124876;1099;104347;-76
2023/12/02 08:52:44;;;;;;;44.50;19.97;;;;;;;5.53;98.29;99341.09;124826;1099;101854;-76
2023/12/02 08:55:16;;;;;;;49.43;22.73;;;;;;;5.66;98.58;99342.46;124891;1099;102637;-76
2023/12/02 08:57:47;;;;;;;41.93;19.50;;;;;;;5.74;98.56;99341.02;124442;1100;104253;-78
2023/12/02 09:00:20;;;;;;;46.95;22.00;;;;;;;5.70;98.45;99332.22;124900;1098;102122;-76
2023/12/02 09:02:52;;;;;;;43.07;19.97;;;;;;;5.67;98.47;99325.98;124973;1099;102070;-76
2023/12/02 09:05:23;;;;;;;43.50;20.77;;;;;;;5.65;98.44;99312.92;124486;1099;104278;-76
2023/12/02 09:07:55;;;;;;;44.63;22.00;;;;;;;5.66;98.45;99309.50;124989;1099;104265;-76
2023/12/02 09:10:27;;;;;;;44.47;21.80;;;;;;;5.67;98.62;99293.06;124869;1099;101922;-77
2023/12/02 09:12:59;;;;;;;51.43;24.47;;;;;;;5.69;98.97;99282.70;124547;1099;104172;-76
2023/12/02 09:15:44;;;;;;;46.13;22.80;;;;;;;5.66;98.64;99293.88;125026;1099;104205;-78
2023/12/02 09:18:24;;;;;;;46.93;22.77;;;;;;;5.67;98.58;99300.87;124977;1099;101932;-77
2023/12/02 09:20:56;;;;;;;48.63;23.57;;;;;;;5.73;98.97;99306.30;124511;1099;101942;-78
2023/12/02 09:23:28;;;;;;;47.17;23.13;;;;;;;5.82;98.96;99315.26;125002;1099;104093;-77
2023/12/02 09:26:02;;;;;;;49.70;23.50;;;;;;;5.88;99.16;99315.48;124622;1099;104169;-77
2023/12/02 09:28:35;;;;;;;47.53;23.43;;;;;;;5.93;99.14;99317.39;124947;1099;104166;-76
2023/12/02 09:31:10;;;;;;;48.60;22.53;;;;;;;5.98;99.36;99317.59;125041;1099;102290;-75
2023/12/02 09:33:42;;;;;;;46.17;23.43;;;;;;;5.97;98.35;99321.05;125114;1098;104173;-76
2023/12/02 09:36:32;;;;;;;53.80;24.10;;;;;;;5.97;98.82;99315.84;125050;1099;102023;-76
2023/12/02 09:39:47;;;;;;;51.73;24.47;;;;;;;5.95;98.37;99296.61;124610;1098;104287;-76
2023/12/02 09:42:20;;;;;;;44.10;22.17;;;;;;;5.94;98.93;99274.91;125190;1099;104169;-77
2023/12/02 09:44:57;;;;;;;52.33;23.47;;;;;;;5.91;98.96;99269.59;125312;1099;104264;-76
2023/12/02 09:47:33;;;;;;;48.27;23.93;;;;;;;5.89;98.94;99270.36;125109;1099;102169;-76
2023/12/02 09:50:13;;;;;;;47.90;22.90;;;;;;;5.86;99.11;99267.66;124920;1099;104319;-77
2023/12/02 09:53:01;;;;;;;49.55;25.10;;;;;;;5.84;99.39;99264.13;124975;1099;104364;-77
2023/12/02 09:55:38;;;;;;;48.47;23.87;;;;;;;5.78;98.99;99269.11;124944;1099;102195;-77
2023/12/02 09:58:25;;;;;;;51.30;24.97;;;;;;;5.74;98.94;99287.22;124991;1099;101807;-76
2023/12/02 10:01:06;;;;;;;48.30;23.60;;;;;;;5.75;99.43;99268.18;124518;1099;117798;-77
2023/12/02 10:04:02;;;;;;;51.70;24.47;;;;;;;5.77;99.63;99260.43;125008;1099;102037;-78
2023/12/02 10:06:51;;;;;;;57.10;26.43;;;;;;;5.83;99.59;99259.73;124990;1099;104083;-77
2023/12/02 10:09:43;;;;;;;51.67;25.00;;;;;;;5.86;99.48;99252.03;124639;1099;104287;-77
2023/12/02 10:12:33;;;;;;;51.83;24.10;;;;;;;5.89;99.78;99244.33;125131;1099;102295;-77
2023/12/02 10:15:10;;;;;;;51.97;24.17;;;;;;;5.90;99.55;99240.90;124655;1099;102015;-77
2023/12/02 10:17:50;;;;;;;50.70;23.55;;;;;;;5.89;99.58;99246.93;124980;1099;104217;-77
2023/12/02 10:20:27;;;;;;;54.57;25.50;;;;;;;5.84;99.33;99251.11;125059;1099;102454;-77
2023/12/02 10:23:07;;;;;;;58.20;25.63;;;;;;;5.85;99.54;99248.55;124522;1099;104280;-77
2023/12/02 10:25:49;;;;;;;52.90;23.87;;;;;;;5.86;99.71;99242.52;125066;1099;101825;-78
2023/12/02 10:28:32;;;;;;;52.77;24.70;;;;;;;5.89;99.51;99233.91;125110;1099;102044;-77
2023/12/02 10:31:06;;;;;;;54.40;24.20;;;;;;;5.93;99.66;99218.45;124944;1099;102181;-76
2023/12/02 10:33:46;;;;;;;49.13;22.37;;;;;;;5.96;99.77;99217.68;125135;1099;104297;-78
2023/12/02 10:36:21;;;;;;;46.10;22.53;;;;;;;5.98;99.86;99205.62;125116;1098;102059;-77
2023/12/02 10:39:06;;;;;;;52.95;23.50;;;;;;;6.00;99.74;99216.99;125167;1099;104184;-77
2023/12/02 10:41:37;;;;;;;;;;;;;;;6.03;100.00;99227.52;125171;1099;102240;-78
2023/12/02 10:44:10;;;;;;;51.17;25.17;;;;;;;6.04;99.96;99229.26;125055;1099;104365;-77
2023/12/02 10:46:45;;;;;;;54.37;24.87;;;;;;;6.05;99.87;99223.23;125116;1099;104198;-77
2023/12/02 10:49:18;;;;;;;55.17;25.90;;;;;;;6.06;99.85;99222.41;124619;1099;104245;-77
2023/12/02 10:51:54;;;;;;;56.57;27.10;;;;;;;6.13;100.00;99230.42;125147;1098;102096;-77
2023/12/02 10:54:29;;;;;;;56.83;26.77;;;;;;;6.15;100.00;99241.77;125106;1099;102056;-77
2023/12/02 10:57:08;;;;;;;58.67;25.73;;;;;;;6.18;99.51;99231.45;124547;1099;104406;-77
2023/12/02 10:59:49;;;;;;;56.70;25.90;;;;;;;6.19;99.75;99228.02;125051;1098;104170;-76
2023/12/02 11:02:31;;;;;;;55.87;25.27;;;;;;;6.17;99.80;99219.25;125108;1099;110444;-77
2023/12/02 11:05:19;;;;;;;54.40;25.23;;;;;;;6.13;99.75;99215.67;125068;1099;104181;-77
2023/12/02 11:07:56;;;;;;;53.77;24.80;;;;;;;6.12;100.00;99198.27;125120;1099;104204;-77
2023/12/02 11:10:39;;;;;;;55.03;25.47;;;;;;;6.13;100.00;99196.56;125060;1099;102239;-77
2023/12/02 11:13:16;;;;;;;54.30;25.10;;;;;;;6.13;100.00;99193.95;125075;1099;101909;-77
2023/12/02 11:16:11;;;;;;;55.83;26.80;;;;;;;6.09;100.00;99180.84;125140;1099;104274;-77
2023/12/02 11:18:55;;;;;;;59.20;28.20;;;;;;;6.06;100.00;99159.91;125117;1099;101912;-77
2023/12/02 11:21:39;;;;;;;59.75;26.85;;;;;;;6.04;100.00;99150.27;125089;1099;104179;-77
2023/12/02 11:24:17;;;;;;;59.17;24.47;;;;;;;6.01;100.00;99152.77;125039;1099;104312;-78
2023/12/02 11:27:06;;;;;;;52.40;23.47;;;;;;;5.98;100.00;99150.06;124572;1099;104217;-77
2023/12/02 11:29:44;;;;;;;59.10;26.53;;;;;;;5.96;100.00;99157.79;125039;1099;104179;-76
2023/12/02 11:32:23;;;;;;;56.37;24.53;;;;;;;5.98;100.00;99166.56;125053;1099;102287;-78
2023/12/02 11:35:09;;;;;;;56.60;26.43;;;;;;;6.00;100.00;99175.33;125063;1099;101910;-77
2023/12/02 11:37:55;;;;;;;54.97;25.10;;;;;;;6.02;100.00;99168.44;125089;1098;104254;-77